Time;durP1;ratioP1;P1;durP2;ratioP2;P2;SDS_P1;SDS_P2;PMS_P1;PMS_P2;Temp;Humidity;BMP_temperature;BMP_pressure;BME280_temperature;BME280_humidity;BME280_pressure;Samples;Min_cycle;Max_cycle;Signal;HPM_P1;HPM_P2
2022/06/25 00:01:12;;;;;;;6.97;4.13;;;;;;;;;;5033264;28;20045;-64
2022/06/25 00:03:38;;;;;;;5.93;4.15;;;;;;;;;;5033818;28;20052;-65
2022/06/25 00:06:06;;;;;;;6.60;4.20;;;;;;;;;;5002933;28;20449;-65
2022/06/25 00:08:33;;;;;;;5.97;3.92;;;;;;;;;;5025827;28;20037;-65
2022/06/25 00:11:00;;;;;;;4.22;3.28;;;;;;;;;;5039662;28;20131;-64
2022/06/25 00:13:27;;;;;;;5.90;4.05;;;;;;;;;;5017992;28;20051;-65
2022/06/25 00:15:53;;;;;;;7.10;3.90;;;;;;;;;;5031889;28;20128;-65
2022/06/25 00:18:19;;;;;;;4.20;3.30;;;;;;;;;;5034487;28;20154;-65
2022/06/25 00:20:46;;;;;;;4.18;3.35;;;;;;;;;;5041964;28;20045;-65
2022/06/25 00:23:13;;;;;;;4.13;3.17;;;;;;;;;;5019784;28;20059;-65
2022/06/25 00:25:39;;;;;;;6.30;3.83;;;;;;;;;;5031941;28;20169;-65
2022/06/25 00:28:06;;;;;;;4.90;3.67;;;;;;;;;;5034820;28;20227;-65
2022/06/25 00:30:33;;;;;;;5.03;3.55;;;;;;;;;;5040335;28;20156;-65
2022/06/25 00:32:59;;;;;;;8.05;3.63;;;;;;;;;;5022293;28;20049;-65
2022/06/25 00:35:26;;;;;;;3.88;3.53;;;;;;;;;;5032823;28;20139;-65
2022/06/25 00:37:52;;;;;;;4.75;3.60;;;;;;;;;;5048176;28;20071;-65
2022/06/25 00:40:19;;;;;;;5.82;3.35;;;;;;;;;;5036684;28;20049;-65
2022/06/25 00:42:46;;;;;;;5.55;3.60;;;;;;;;;;5044553;28;20048;-65
2022/06/25 00:45:12;;;;;;;4.68;3.50;;;;;;;;;;5027212;28;20048;-65
2022/06/25 00:47:39;;;;;;;5.88;3.45;;;;;;;;;;5042688;28;20052;-65
2022/06/25 00:50:05;;;;;;;5.63;3.25;;;;;;;;;;5031999;28;20497;-65
2022/06/25 00:52:32;;;;;;;3.88;3.30;;;;;;;;;;5034950;28;20041;-65
2022/06/25 00:55:04;;;;;;;8.82;3.20;;;;;;;;;;5043304;28;20053;-65
2022/06/25 00:57:31;;;;;;;4.30;3.30;;;;;;;;;;5037001;28;20105;-65
2022/06/25 01:00:01;;;;;;;5.40;3.38;;;;;;;;;;5044703;28;20059;-65
2022/06/25 01:02:27;;;;;;;6.28;4.07;;;;;;;;;;5034091;28;20087;-64
2022/06/25 01:04:53;;;;;;;5.45;3.85;;;;;;;;;;5035469;28;20514;-65
2022/06/25 01:07:20;;;;;;;5.75;3.67;;;;;;;;;;5044697;28;20127;-65
2022/06/25 01:09:47;;;;;;;6.40;3.35;;;;;;;;;;5031706;28;20371;-65
2022/06/25 01:12:13;;;;;;;5.85;3.65;;;;;;;;;;5037297;28;20056;-64
2022/06/25 01:14:40;;;;;;;6.07;3.85;;;;;;;;;;5021829;28;20071;-64
2022/06/25 01:17:07;;;;;;;7.30;3.65;;;;;;;;;;5042333;28;20056;-64
2022/06/25 01:19:33;;;;;;;6.50;3.47;;;;;;;;;;5025523;28;20132;-65
2022/06/25 01:22:02;;;;;;;7.70;3.40;;;;;;;;;;5039337;28;20541;-64
2022/06/25 01:24:28;;;;;;;5.25;3.63;;;;;;;;;;5045596;28;20187;-64
2022/06/25 01:26:55;;;;;;;4.80;3.03;;;;;;;;;;5027904;28;20049;-65
2022/06/25 01:29:21;;;;;;;4.40;3.53;;;;;;;;;;5020063;28;20053;-65
2022/06/25 01:31:47;;;;;;;5.97;3.72;;;;;;;;;;5022903;28;20524;-65
2022/06/25 01:34:14;;;;;;;5.50;3.63;;;;;;;;;;5039869;28;20075;-66
2022/06/25 01:36:40;;;;;;;6.72;3.50;;;;;;;;;;5040563;28;20136;-65
2022/06/25 01:39:06;;;;;;;6.95;3.38;;;;;;;;;;5030733;28;20057;-65
2022/06/25 01:41:33;;;;;;;5.45;3.53;;;;;;;;;;5043344;28;20652;-65
2022/06/25 01:43:59;;;;;;;3.50;2.90;;;;;;;;;;5023285;28;20056;-65
2022/06/25 01:46:25;;;;;;;5.20;3.30;;;;;;;;;;5040047;28;20136;-65
2022/06/25 01:48:52;;;;;;;7.30;3.90;;;;;;;;;;5028490;28;20131;-65
2022/06/25 01:51:20;;;;;;;5.97;3.42;;;;;;;;;;5036615;28;20238;-65
2022/06/25 01:53:46;;;;;;;4.75;3.75;;;;;;;;;;5031594;28;20055;-65
2022/06/25 01:56:13;;;;;;;6.38;3.70;;;;;;;;;;5024788;28;20053;-65
2022/06/25 01:58:39;;;;;;;5.35;3.30;;;;;;;;;;5041405;28;20057;-65
2022/06/25 02:01:05;;;;;;;5.35;3.58;;;;;;;;;;5028925;28;20049;-65
2022/06/25 02:03:32;;;;;;;4.68;3.22;;;;;;;;;;5034762;28;20168;-64
2022/06/25 02:05:58;;;;;;;5.75;3.13;;;;;;;;;;5025941;28;20095;-65
2022/06/25 02:08:26;;;;;;;6.80;3.90;;;;;;;;;;5027343;28;20157;-65
2022/06/25 02:10:53;;;;;;;3.77;3.20;;;;;;;;;;5024636;28;20052;-64
2022/06/25 02:13:20;;;;;;;5.68;3.22;;;;;;;;;;5027883;28;20053;-65
2022/06/25 02:15:47;;;;;;;5.78;3.47;;;;;;;;;;5039265;28;20430;-65
2022/06/25 02:18:13;;;;;;;6.50;3.30;;;;;;;;;;5029401;28;20595;-65
2022/06/25 02:20:40;;;;;;;4.50;3.20;;;;;;;;;;5035150;28;20078;-65
2022/06/25 02:23:07;;;;;;;6.03;3.70;;;;;;;;;;5036953;28;20052;-65
2022/06/25 02:25:34;;;;;;;6.20;3.50;;;;;;;;;;5033813;28;20063;-66
2022/06/25 02:28:00;;;;;;;6.30;3.85;;;;;;;;;;5038001;28;20049;-66
2022/06/25 02:30:27;;;;;;;3.97;3.20;;;;;;;;;;5028306;28;20155;-65
2022/06/25 02:32:53;;;;;;;4.28;3.25;;;;;;;;;;5034418;28;20132;-65
2022/06/25 02:35:20;;;;;;;5.78;3.30;;;;;;;;;;5019295;28;20499;-66
2022/06/25 02:37:46;;;;;;;4.80;3.10;;;;;;;;;;5039560;28;20581;-66
2022/06/25 02:40:12;;;;;;;3.95;3.13;;;;;;;;;;5039074;28;20059;-66
2022/06/25 02:42:39;;;;;;;5.00;3.03;;;;;;;;;;5029130;28;20445;-65
2022/06/25 02:45:06;;;;;;;6.05;3.25;;;;;;;;;;5041242;28;20052;-66
2022/06/25 02:47:32;;;;;;;4.35;2.30;;;;;;;;;;5027563;28;20083;-66
2022/06/25 02:49:59;;;;;;;6.60;3.30;;;;;;;;;;5017823;28;20048;-67
2022/06/25 02:52:26;;;;;;;4.43;2.90;;;;;;;;;;5034321;28;20052;-65
2022/06/25 02:54:52;;;;;;;5.82;2.72;;;;;;;;;;5033879;28;20433;-65
2022/06/25 03:00:04;;;;;;;3.20;2.70;;;;;;;;;;5019241;28;20138;-64
2022/06/25 03:02:31;;;;;;;3.92;2.90;;;;;;;;;;5035286;28;20048;-64
2022/06/25 03:04:58;;;;;;;4.75;2.72;;;;;;;;;;5024060;28;20561;-65
2022/06/25 03:07:24;;;;;;;7.80;3.38;;;;;;;;;;5032292;28;20052;-64
2022/06/25 03:09:51;;;;;;;3.65;2.45;;;;;;;;;;5021015;28;20129;-65
2022/06/25 03:12:17;;;;;;;8.18;2.70;;;;;;;;;;5023768;28;20494;-65
2022/06/25 03:14:43;;;;;;;3.50;2.88;;;;;;;;;;5027840;28;20544;-65
2022/06/25 03:17:10;;;;;;;6.97;3.03;;;;;;;;;;5027190;28;20044;-65
2022/06/25 03:19:36;;;;;;;4.93;2.80;;;;;;;;;;5034984;28;20477;-65
2022/06/25 03:22:03;;;;;;;3.95;2.33;;;;;;;;;;5017668;28;20589;-66
2022/06/25 03:24:29;;;;;;;3.08;2.60;;;;;;;;;;5026342;28;20049;-64
2022/06/25 03:26:55;;;;;;;4.63;2.90;;;;;;;;;;5026076;28;20160;-65
2022/06/25 03:29:22;;;;;;;5.60;2.60;;;;;;;;;;5021896;28;20056;-64
2022/06/25 03:31:48;;;;;;;5.75;2.83;;;;;;;;;;5037784;28;20125;-64
2022/06/25 03:34:15;;;;;;;4.68;2.83;;;;;;;;;;5022685;28;20055;-65
2022/06/25 03:36:41;;;;;;;6.28;2.92;;;;;;;;;;5039928;28;20048;-65
2022/06/25 03:39:07;;;;;;;3.83;2.75;;;;;;;;;;5030048;28;20053;-65
2022/06/25 03:41:36;;;;;;;3.85;2.80;;;;;;;;;;5029350;28;20440;-65
2022/06/25 03:44:02;;;;;;;;;;;;;;;;;;5028123;28;20510;-65
2022/06/25 03:46:29;;;;;;;5.22;2.85;;;;;;;;;;5015131;28;20293;-66
2022/06/25 03:48:55;;;;;;;5.60;2.55;;;;;;;;;;5032339;28;20053;-65
2022/06/25 03:51:22;;;;;;;4.85;2.78;;;;;;;;;;5034133;28;20046;-65
2022/06/25 03:53:48;;;;;;;5.35;2.90;;;;;;;;;;5045392;28;20589;-66
2022/06/25 03:56:14;;;;;;;5.18;2.67;;;;;;;;;;5023406;28;20052;-65
2022/06/25 03:58:41;;;;;;;4.25;2.80;;;;;;;;;;5025787;28;20046;-65
2022/06/25 04:01:08;;;;;;;5.95;3.17;;;;;;;;;;5028940;28;20500;-65
2022/06/25 04:03:34;;;;;;;5.07;2.97;;;;;;;;;;5026729;28;20278;-65
2022/06/25 04:06:00;;;;;;;4.90;2.88;;;;;;;;;;5023935;28;20049;-65
2022/06/25 04:08:27;;;;;;;5.55;3.28;;;;;;;;;;5028103;28;20041;-65
2022/06/25 04:10:53;;;;;;;6.35;3.30;;;;;;;;;;5038151;28;20049;-64
2022/06/25 04:13:19;;;;;;;7.63;3.00;;;;;;;;;;5038885;28;20478;-64
2022/06/25 04:15:46;;;;;;;6.35;3.25;;;;;;;;;;5028882;28;20434;-65
2022/06/25 04:18:12;;;;;;;6.50;3.17;;;;;;;;;;5034944;28;20516;-64
2022/06/25 04:20:39;;;;;;;6.13;3.47;;;;;;;;;;5022699;28;20049;-65
2022/06/25 04:23:05;;;;;;;6.15;3.45;;;;;;;;;;5026930;28;20542;-65
2022/06/25 04:25:31;;;;;;;5.07;3.08;;;;;;;;;;5035960;28;20057;-65
2022/06/25 04:30:43;;;;;;;5.00;2.85;;;;;;;;;;5018877;28;20137;-65
2022/06/25 04:33:09;;;;;;;11.40;3.90;;;;;;;;;;5031152;28;20502;-66
2022/06/25 04:35:36;;;;;;;8.43;3.50;;;;;;;;;;5031118;28;20049;-65
2022/06/25 04:38:02;;;;;;;6.07;3.95;;;;;;;;;;5027403;28;20058;-64
2022/06/25 04:40:29;;;;;;;7.45;3.42;;;;;;;;;;5042776;28;20503;-65
2022/06/25 04:42:55;;;;;;;6.60;3.65;;;;;;;;;;5037949;28;20045;-65
2022/06/25 04:45:22;;;;;;;6.82;3.95;;;;;;;;;;5034549;28;20050;-65
2022/06/25 04:47:48;;;;;;;7.07;3.70;;;;;;;;;;5036079;28;20045;-65
2022/06/25 04:50:15;;;;;;;8.02;3.75;;;;;;;;;;5023777;28;20134;-65
2022/06/25 04:52:41;;;;;;;9.90;4.05;;;;;;;;;;5039327;28;20055;-65
2022/06/25 04:55:08;;;;;;;6.60;4.05;;;;;;;;;;5024902;28;20362;-65
2022/06/25 04:57:34;;;;;;;6.55;4.22;;;;;;;;;;5034867;28;20137;-64
2022/06/25 05:00:03;;;;;;;6.75;3.97;;;;;;;;;;5031835;28;20482;-65
2022/06/25 05:02:29;;;;;;;8.57;4.40;;;;;;;;;;5025370;28;20059;-65
2022/06/25 05:04:55;;;;;;;7.03;4.43;;;;;;;;;;5029638;28;20053;-65
2022/06/25 05:07:22;;;;;;;6.40;4.75;;;;;;;;;;5028486;28;20464;-64
2022/06/25 05:09:48;;;;;;;5.70;4.22;;;;;;;;;;5041507;28;20571;-64
2022/06/25 05:13:11;;;;;;;6.13;4.10;;;;;;;;;;5021174;28;20051;-64
2022/06/25 05:15:01;;;;;;;10.57;4.07;;;;;;;;;;5035955;28;20128;-65
2022/06/25 05:17:28;;;;;;;8.25;4.30;;;;;;;;;;5019098;28;20049;-65
2022/06/25 05:19:55;;;;;;;9.75;3.95;;;;;;;;;;5022266;28;20498;-65
2022/06/25 05:22:23;;;;;;;6.25;3.80;;;;;;;;;;5038188;28;20122;-66
2022/06/25 05:24:49;;;;;;;4.80;3.87;;;;;;;;;;5033446;28;20044;-65
2022/06/25 05:27:16;;;;;;;6.75;4.07;;;;;;;;;;5031136;28;20298;-65
2022/06/25 05:29:42;;;;;;;6.75;4.13;;;;;;;;;;5025422;28;20052;-65
2022/06/25 05:32:08;;;;;;;9.43;3.92;;;;;;;;;;5020063;28;20059;-65
2022/06/25 05:34:35;;;;;;;5.93;4.00;;;;;;;;;;5035067;28;20128;-65
2022/06/25 05:37:01;;;;;;;5.70;3.50;;;;;;;;;;5035516;28;20049;-65
2022/06/25 05:39:27;;;;;;;11.60;4.18;;;;;;;;;;5031474;28;20480;-65
2022/06/25 05:41:54;;;;;;;5.35;3.70;;;;;;;;;;5034828;28;20425;-65
2022/06/25 05:44:20;;;;;;;8.55;3.70;;;;;;;;;;5032759;28;20624;-65
2022/06/25 05:46:46;;;;;;;5.90;3.60;;;;;;;;;;5022621;28;20139;-65
2022/06/25 05:49:13;;;;;;;7.68;3.63;;;;;;;;;;5026782;28;20061;-65
2022/06/25 05:51:39;;;;;;;6.93;3.47;;;;;;;;;;5035370;28;20048;-65
2022/06/25 05:54:05;;;;;;;6.30;3.70;;;;;;;;;;5031173;28;20055;-66
2022/06/25 05:56:32;;;;;;;6.40;3.55;;;;;;;;;;5041997;28;20437;-65
2022/06/25 05:58:58;;;;;;;6.68;3.67;;;;;;;;;;5025198;28;20305;-65
2022/06/25 06:01:24;;;;;;;5.68;4.03;;;;;;;;;;5030653;28;20084;-65
2022/06/25 06:03:51;;;;;;;6.60;4.43;;;;;;;;;;5036725;28;20128;-66
2022/06/25 06:06:17;;;;;;;7.13;4.00;;;;;;;;;;5040144;28;20742;-65
2022/06/25 06:08:43;;;;;;;9.30;4.18;;;;;;;;;;5039819;28;20044;-65
2022/06/25 06:11:10;;;;;;;5.93;3.53;;;;;;;;;;5019888;28;20263;-65
2022/06/25 06:13:36;;;;;;;7.13;3.50;;;;;;;;;;5033772;28;20041;-65
2022/06/25 06:16:02;;;;;;;5.65;3.10;;;;;;;;;;5026551;28;20084;-65
2022/06/25 06:18:29;;;;;;;6.15;3.40;;;;;;;;;;5030986;28;20100;-66
2022/06/25 06:20:55;;;;;;;7.22;3.70;;;;;;;;;;5033644;28;20049;-65
2022/06/25 06:23:21;;;;;;;7.88;3.60;;;;;;;;;;5026918;28;20048;-65
2022/06/25 06:25:48;;;;;;;8.18;3.28;;;;;;;;;;5022417;28;20144;-65
2022/06/25 06:28:14;;;;;;;5.00;3.00;;;;;;;;;;5034704;28;20067;-64
2022/06/25 06:30:40;;;;;;;7.70;3.40;;;;;;;;;;5045289;28;20478;-66
2022/06/25 06:33:07;;;;;;;7.70;3.13;;;;;;;;;;5020680;28;20080;-65
2022/06/25 06:35:33;;;;;;;7.18;3.25;;;;;;;;;;5039698;28;20140;-65
2022/06/25 06:37:59;;;;;;;6.40;2.97;;;;;;;;;;5037463;28;20053;-65
2022/06/25 06:40:26;;;;;;;5.28;3.13;;;;;;;;;;5023365;28;20249;-65
2022/06/25 06:42:52;;;;;;;5.88;3.28;;;;;;;;;;5026021;28;20088;-65
2022/06/25 06:45:18;;;;;;;7.07;3.65;;;;;;;;;;5031736;28;20053;-65
2022/06/25 06:47:45;;;;;;;7.00;3.28;;;;;;;;;;5037494;28;20041;-65
2022/06/25 06:50:11;;;;;;;5.70;3.10;;;;;;;;;;5033086;28;20045;-65
2022/06/25 06:52:38;;;;;;;4.95;2.95;;;;;;;;;;5028983;28;20125;-65
2022/06/25 06:55:04;;;;;;;5.22;3.00;;;;;;;;;;5030530;28;20056;-65
2022/06/25 06:57:32;;;;;;;4.60;2.92;;;;;;;;;;5019977;28;20049;-65
2022/06/25 06:59:59;;;;;;;5.22;3.00;;;;;;;;;;5029905;28;20057;-65
2022/06/25 07:02:25;;;;;;;6.78;2.97;;;;;;;;;;5022226;28;20044;-64
2022/06/25 07:04:52;;;;;;;5.57;3.10;;;;;;;;;;5035441;28;20590;-66
2022/06/25 07:07:18;;;;;;;6.68;3.28;;;;;;;;;;5016012;28;20050;-64
2022/06/25 07:09:45;;;;;;;5.03;2.92;;;;;;;;;;5022107;28;20052;-66
2022/06/25 07:12:11;;;;;;;6.35;2.97;;;;;;;;;;5032366;28;20876;-65
2022/06/25 07:14:37;;;;;;;4.05;2.38;;;;;;;;;;5030572;28;20887;-65
2022/06/25 07:17:04;;;;;;;5.03;2.58;;;;;;;;;;5034676;28;20049;-66
2022/06/25 07:19:30;;;;;;;6.05;2.85;;;;;;;;;;5018896;28;20053;-65
2022/06/25 07:21:57;;;;;;;5.22;2.85;;;;;;;;;;5016285;28;20582;-65
2022/06/25 07:24:23;;;;;;;4.05;2.65;;;;;;;;;;5017438;28;20188;-64
2022/06/25 07:26:50;;;;;;;5.03;2.92;;;;;;;;;;5039851;28;20044;-65
2022/06/25 07:29:16;;;;;;;5.70;2.90;;;;;;;;;;5037458;28;20690;-65
2022/06/25 07:31:42;;;;;;;6.13;2.63;;;;;;;;;;5031398;28;20587;-65
2022/06/25 07:34:14;;;;;;;5.70;2.50;;;;;;;;;;5034649;28;20404;-64
2022/06/25 07:36:40;;;;;;;4.43;2.67;;;;;;;;;;5026829;28;20147;-65
2022/06/25 07:39:08;;;;;;;3.72;2.42;;;;;;;;;;5035583;28;20045;-65
2022/06/25 07:41:34;;;;;;;4.65;2.75;;;;;;;;;;5031578;28;20049;-65
2022/06/25 07:44:00;;;;;;;3.58;2.35;;;;;;;;;;5012003;28;20057;-64
2022/06/25 07:46:27;;;;;;;4.28;2.30;;;;;;;;;;5034412;28;20045;-65
2022/06/25 07:48:53;;;;;;;7.95;2.50;;;;;;;;;;5008106;28;20045;-66
2022/06/25 07:54:05;;;;;;;3.30;1.95;;;;;;;;;;5020743;28;20046;-65
2022/06/25 07:56:31;;;;;;;4.03;2.00;;;;;;;;;;5030315;28;20049;-65
2022/06/25 07:58:57;;;;;;;3.67;2.17;;;;;;;;;;5026166;28;20053;-65
2022/06/25 08:01:24;;;;;;;5.82;2.33;;;;;;;;;;5020448;28;20058;-65
2022/06/25 08:03:50;;;;;;;2.88;2.00;;;;;;;;;;5031020;28;20537;-65
2022/06/25 08:06:17;;;;;;;3.33;2.17;;;;;;;;;;5019662;28;20042;-65
2022/06/25 08:08:43;;;;;;;6.90;2.25;;;;;;;;;;5017327;28;20470;-64
2022/06/25 08:11:10;;;;;;;3.38;1.95;;;;;;;;;;5042331;28;20052;-65
2022/06/25 08:13:39;;;;;;;4.20;1.90;;;;;;;;;;5042871;28;20147;-66
2022/06/25 08:16:05;;;;;;;7.30;2.00;;;;;;;;;;5032760;28;20051;-66
2022/06/25 08:18:32;;;;;;;3.17;1.80;;;;;;;;;;5020567;28;20567;-65
2022/06/25 08:20:59;;;;;;;3.72;1.50;;;;;;;;;;5035556;28;20651;-65
2022/06/25 08:23:25;;;;;;;5.80;1.60;;;;;;;;;;5028342;28;20165;-64
2022/06/25 08:25:52;;;;;;;2.15;1.25;;;;;;;;;;5044010;28;20044;-64
2022/06/25 08:28:18;;;;;;;2.40;1.50;;;;;;;;;;5019533;28;20051;-64
2022/06/25 08:30:45;;;;;;;1.98;1.27;;;;;;;;;;5031843;28;20040;-65
2022/06/25 08:33:11;;;;;;;3.77;1.30;;;;;;;;;;5030910;28;20047;-64
2022/06/25 08:35:38;;;;;;;3.25;1.40;;;;;;;;;;5025556;28;20045;-64
2022/06/25 08:38:04;;;;;;;3.22;1.40;;;;;;;;;;5040578;28;20049;-65
2022/06/25 08:40:31;;;;;;;2.83;1.58;;;;;;;;;;5030836;28;20619;-65
2022/06/25 08:42:58;;;;;;;5.55;1.70;;;;;;;;;;5027078;28;20156;-65
2022/06/25 08:45:24;;;;;;;2.90;1.40;;;;;;;;;;5023562;28;20497;-64
2022/06/25 08:47:51;;;;;;;1.65;1.23;;;;;;;;;;5024786;28;20464;-65
2022/06/25 08:50:20;;;;;;;1.63;1.10;;;;;;;;;;5040200;28;20085;-66
2022/06/25 08:52:48;;;;;;;2.97;1.27;;;;;;;;;;5033351;28;20049;-65
2022/06/25 08:55:28;;;;;;;2.47;1.33;;;;;;;;;;5033060;28;20049;-65
2022/06/25 08:57:55;;;;;;;2.55;1.60;;;;;;;;;;5012607;28;20041;-64
2022/06/25 09:00:21;;;;;;;7.78;1.58;;;;;;;;;;5020475;28;20152;-65
2022/06/25 09:02:49;;;;;;;5.47;1.80;;;;;;;;;;5041934;28;20118;-65
2022/06/25 09:05:16;;;;;;;3.08;1.42;;;;;;;;;;5023317;28;20060;-65
2022/06/25 09:07:51;;;;;;;4.07;1.50;;;;;;;;;;5033511;28;20059;-65
2022/06/25 09:10:21;;;;;;;3.25;1.30;;;;;;;;;;5033356;28;20175;-65
2022/06/25 09:12:54;;;;;;;5.15;1.52;;;;;;;;;;5025566;28;20418;-65
2022/06/25 09:15:21;;;;;;;7.82;1.52;;;;;;;;;;5026384;28;20048;-65
2022/06/25 09:17:51;;;;;;;3.08;1.33;;;;;;;;;;5021489;28;20053;-64
2022/06/25 09:20:25;;;;;;;2.60;1.20;;;;;;;;;;5036230;28;20325;-65
2022/06/25 09:23:03;;;;;;;2.42;1.20;;;;;;;;;;5014564;28;20053;-65
2022/06/25 09:25:30;;;;;;;4.30;1.27;;;;;;;;;;5026407;28;20643;-64
2022/06/25 09:27:57;;;;;;;3.42;1.27;;;;;;;;;;5018655;28;20430;-65
2022/06/25 09:30:28;;;;;;;1.90;0.95;;;;;;;;;;5046766;28;20053;-64
2022/06/25 09:32:55;;;;;;;3.13;1.20;;;;;;;;;;5029284;28;20595;-65
2022/06/25 09:35:34;;;;;;;3.42;0.90;;;;;;;;;;5032911;28;20055;-64
2022/06/25 09:38:11;;;;;;;1.85;1.00;;;;;;;;;;5045250;28;20128;-65
2022/06/25 09:40:38;;;;;;;3.17;1.38;;;;;;;;;;5029127;28;20505;-64
2022/06/25 09:43:12;;;;;;;2.65;1.35;;;;;;;;;;5027369;28;20109;-64
2022/06/25 09:45:39;;;;;;;1.73;1.20;;;;;;;;;;5017713;28;20051;-64
2022/06/25 09:48:07;;;;;;;3.92;1.20;;;;;;;;;;5034829;28;20132;-64
2022/06/25 09:50:34;;;;;;;2.03;1.20;;;;;;;;;;5031531;28;20055;-65
2022/06/25 09:53:01;;;;;;;3.05;1.40;;;;;;;;;;5038046;28;20100;-65
2022/06/25 09:55:28;;;;;;;2.55;1.23;;;;;;;;;;5036915;28;20425;-64
2022/06/25 09:57:54;;;;;;;2.88;1.40;;;;;;;;;;5029214;28;20067;-64
2022/06/25 10:00:22;;;;;;;2.30;1.23;;;;;;;;;;5033778;28;20425;-64
2022/06/25 10:02:50;;;;;;;5.38;1.75;;;;;;;;;;5028277;28;20436;-65
2022/06/25 10:05:17;;;;;;;3.00;1.40;;;;;;;;;;5029943;28;20059;-64
2022/06/25 10:07:59;;;;;;;4.88;1.90;;;;;;;;;;5021750;28;20099;-64
2022/06/25 10:10:27;;;;;;;2.80;1.50;;;;;;;;;;5044059;28;20508;-65
2022/06/25 10:12:54;;;;;;;;;;;;;;;;;;5028866;28;20053;-66
2022/06/25 10:15:21;;;;;;;3.60;1.30;;;;;;;;;;5023856;28;19928;-65
2022/06/25 10:17:48;;;;;;;3.00;1.25;;;;;;;;;;5038141;28;20606;-65
2022/06/25 10:20:16;;;;;;;2.15;1.20;;;;;;;;;;5022098;28;20488;-65
2022/06/25 10:22:43;;;;;;;3.65;1.40;;;;;;;;;;5030342;28;20049;-65
2022/06/25 10:25:11;;;;;;;6.68;1.50;;;;;;;;;;5021342;28;20049;-65
2022/06/25 10:27:44;;;;;;;2.90;1.73;;;;;;;;;;5022309;28;20516;-65
2022/06/25 10:30:12;;;;;;;3.72;1.50;;;;;;;;;;5028107;28;20051;-65
2022/06/25 10:32:46;;;;;;;3.90;1.35;;;;;;;;;;5028821;28;20045;-65
2022/06/25 10:35:29;;;;;;;3.20;1.70;;;;;;;;;;5020740;28;20362;-65
2022/06/25 10:38:00;;;;;;;3.47;1.45;;;;;;;;;;5029535;28;20045;-66
2022/06/25 10:40:26;;;;;;;2.17;1.50;;;;;;;;;;5022717;28;20124;-65
2022/06/25 10:42:59;;;;;;;2.08;1.55;;;;;;;;;;5025101;28;20048;-65
2022/06/25 10:45:26;;;;;;;2.45;1.58;;;;;;;;;;5029173;28;20051;-65
2022/06/25 10:47:53;;;;;;;3.17;1.60;;;;;;;;;;5042292;28;20049;-65
2022/06/25 10:50:19;;;;;;;3.05;1.38;;;;;;;;;;5026911;28;20045;-65
2022/06/25 10:53:07;;;;;;;2.58;1.40;;;;;;;;;;5022426;28;20504;-66
2022/06/25 10:55:33;;;;;;;;;;;;;;;;;;5021439;28;20053;-64
2022/06/25 10:58:13;;;;;;;3.95;1.50;;;;;;;;;;5025136;28;19972;-64
2022/06/25 11:00:52;;;;;;;3.65;1.40;;;;;;;;;;5029711;28;20472;-64
2022/06/25 11:03:24;;;;;;;3.65;1.52;;;;;;;;;;5035169;28;20049;-63
2022/06/25 11:05:51;;;;;;;2.60;1.42;;;;;;;;;;5034108;28;20340;-65
2022/06/25 11:08:17;;;;;;;3.20;1.40;;;;;;;;;;5014821;28;20079;-64
2022/06/25 11:10:43;;;;;;;3.17;1.45;;;;;;;;;;5024030;28;20061;-64
2022/06/25 11:13:10;;;;;;;1.67;1.45;;;;;;;;;;5014960;28;20375;-64
2022/06/25 11:15:43;;;;;;;6.55;2.03;;;;;;;;;;5028184;28;20348;-64
2022/06/25 11:18:11;;;;;;;2.83;1.88;;;;;;;;;;5017247;28;20053;-64
2022/06/25 11:20:39;;;;;;;5.05;1.70;;;;;;;;;;5032101;28;20395;-64
2022/06/25 11:23:05;;;;;;;3.10;1.30;;;;;;;;;;5031451;28;20053;-64
2022/06/25 11:31:23;;;;;;;2.95;1.58;;;;;;;;;;5026093;28;20449;-65
2022/06/25 11:33:51;;;;;;;4.55;1.40;;;;;;;;;;5038215;28;20413;-65
2022/06/25 11:36:18;;;;;;;3.75;1.50;;;;;;;;;;5023427;28;20476;-65
2022/06/25 11:38:52;;;;;;;3.08;1.50;;;;;;;;;;5050364;28;20049;-65
2022/06/25 11:41:22;;;;;;;5.47;1.80;;;;;;;;;;5023440;28;20052;-65
2022/06/25 11:43:48;;;;;;;4.90;1.70;;;;;;;;;;5034691;28;20044;-64
2022/06/25 11:46:18;;;;;;;6.30;1.60;;;;;;;;;;5022071;28;20164;-65
2022/06/25 11:48:47;;;;;;;3.38;1.75;;;;;;;;;;5029899;28;20044;-65
2022/06/25 11:51:21;;;;;;;2.67;1.70;;;;;;;;;;5040894;28;20515;-65
2022/06/25 11:53:47;;;;;;;2.50;1.58;;;;;;;;;;5029663;28;20053;-65
2022/06/25 11:56:14;;;;;;;4.90;1.70;;;;;;;;;;5022385;28;20083;-66
2022/06/25 11:58:40;;;;;;;3.40;2.00;;;;;;;;;;5030785;28;20049;-65
2022/06/25 12:01:07;;;;;;;5.20;1.65;;;;;;;;;;5031673;28;20425;-65
2022/06/25 12:03:36;;;;;;;3.83;1.65;;;;;;;;;;5032508;28;20053;-65
2022/06/25 12:06:03;;;;;;;4.20;1.77;;;;;;;;;;5036222;28;20128;-65
2022/06/25 12:08:29;;;;;;;2.33;1.45;;;;;;;;;;5034370;28;20127;-64
2022/06/25 12:10:56;;;;;;;3.97;1.60;;;;;;;;;;5023254;28;20221;-66
2022/06/25 12:13:25;;;;;;;4.60;1.60;;;;;;;;;;5046253;28;20432;-65
2022/06/25 12:15:59;;;;;;;4.38;1.55;;;;;;;;;;5032539;28;20384;-65
2022/06/25 12:18:32;;;;;;;5.15;1.50;;;;;;;;;;5031539;28;20056;-65
2022/06/25 12:21:00;;;;;;;4.93;1.50;;;;;;;;;;5026488;28;20581;-65
2022/06/25 12:23:26;;;;;;;4.73;1.80;;;;;;;;;;5014135;28;20156;-66
2022/06/25 12:25:52;;;;;;;4.72;1.90;;;;;;;;;;5033733;28;20056;-65
2022/06/25 12:28:40;;;;;;;2.55;1.65;;;;;;;;;;5029017;28;20476;-65
2022/06/25 12:31:10;;;;;;;6.55;1.88;;;;;;;;;;5042781;28;20163;-66
2022/06/25 12:33:36;;;;;;;5.50;1.80;;;;;;;;;;5028982;28;20056;-66
2022/06/25 12:36:14;;;;;;;3.83;1.90;;;;;;;;;;5037721;28;20446;-64
2022/06/25 12:38:40;;;;;;;;;;;;;;;;;;5039728;28;20125;-65
2022/06/25 12:41:07;;;;;;;4.88;1.80;;;;;;;;;;5016622;28;19925;-65
2022/06/25 12:43:44;;;;;;;3.92;1.63;;;;;;;;;;5024590;28;20265;-65
2022/06/25 12:46:10;;;;;;;4.40;1.50;;;;;;;;;;5019807;28;20056;-65
2022/06/25 12:48:37;;;;;;;4.38;1.35;;;;;;;;;;5035242;28;20051;-66
2022/06/25 12:51:11;;;;;;;3.50;1.40;;;;;;;;;;5027711;28;20049;-66
2022/06/25 12:53:39;;;;;;;4.55;1.10;;;;;;;;;;5038271;28;20052;-65
2022/06/25 12:56:06;;;;;;;2.03;1.15;;;;;;;;;;5032635;28;20056;-66
2022/06/25 12:58:33;;;;;;;2.80;1.15;;;;;;;;;;5016528;28;20498;-65
2022/06/25 13:00:59;;;;;;;5.85;1.40;;;;;;;;;;5022029;28;20128;-65
2022/06/25 13:03:26;;;;;;;2.45;1.30;;;;;;;;;;5012903;28;20491;-65
2022/06/25 13:05:52;;;;;;;4.05;1.40;;;;;;;;;;5032599;28;20046;-65
2022/06/25 13:08:18;;;;;;;4.20;1.48;;;;;;;;;;5032912;28;20045;-65
2022/06/25 13:10:47;;;;;;;2.05;1.20;;;;;;;;;;5033434;28;20055;-65
2022/06/25 13:13:14;;;;;;;7.13;1.48;;;;;;;;;;5042406;28;20045;-65
2022/06/25 13:15:40;;;;;;;4.38;1.30;;;;;;;;;;5024146;28;20141;-66
2022/06/25 13:18:06;;;;;;;4.50;1.20;;;;;;;;;;5034806;28;20535;-65
2022/06/25 13:20:33;;;;;;;4.32;1.27;;;;;;;;;;5026454;28;20428;-64
2022/06/25 13:22:59;;;;;;;3.60;1.15;;;;;;;;;;5039139;28;20428;-65
2022/06/25 13:25:26;;;;;;;4.15;1.08;;;;;;;;;;5019834;28;20490;-64
2022/06/25 13:27:53;;;;;;;2.75;1.10;;;;;;;;;;5013526;28;20050;-64
2022/06/25 13:30:19;;;;;;;5.97;1.48;;;;;;;;;;5029176;28;20409;-65
2022/06/25 13:33:06;;;;;;;5.38;1.20;;;;;;;;;;5027329;28;20873;-65
2022/06/25 13:35:32;;;;;;;1.45;1.10;;;;;;;;;;5037759;28;20094;-66
2022/06/25 13:37:58;;;;;;;3.63;1.50;;;;;;;;;;5034603;28;20212;-65
2022/06/25 13:40:26;;;;;;;3.20;1.50;;;;;;;;;;5038426;28;20053;-65
2022/06/25 13:42:52;;;;;;;3.72;1.52;;;;;;;;;;5029542;28;20060;-66
2022/06/25 13:45:19;;;;;;;3.38;1.50;;;;;;;;;;5024774;28;20049;-65
2022/06/25 13:47:45;;;;;;;2.95;1.30;;;;;;;;;;5023750;28;20136;-65
2022/06/25 13:50:12;;;;;;;2.72;1.35;;;;;;;;;;5013075;28;20135;-65
2022/06/25 13:52:38;;;;;;;1.63;1.08;;;;;;;;;;5025121;28;20060;-65
2022/06/25 13:55:05;;;;;;;3.00;1.23;;;;;;;;;;5032464;28;20055;-65
2022/06/25 13:57:31;;;;;;;6.32;1.58;;;;;;;;;;5034367;28;20045;-65
2022/06/25 14:00:03;;;;;;;3.10;1.10;;;;;;;;;;5035199;28;20049;-65
2022/06/25 14:02:30;;;;;;;3.47;1.30;;;;;;;;;;5017601;28;20045;-66
2022/06/25 14:04:56;;;;;;;3.13;1.30;;;;;;;;;;5034329;28;20083;-65
2022/06/25 14:07:22;;;;;;;1.58;1.00;;;;;;;;;;5023772;28;20532;-65
2022/06/25 14:09:49;;;;;;;4.75;1.20;;;;;;;;;;5036481;28;20049;-65
2022/06/25 14:12:15;;;;;;;2.60;1.10;;;;;;;;;;5033740;28;20325;-65
2022/06/25 14:14:41;;;;;;;2.25;1.08;;;;;;;;;;5019960;28;20136;-65
2022/06/25 14:17:08;;;;;;;2.08;1.10;;;;;;;;;;5028819;28;20041;-66
2022/06/25 14:19:35;;;;;;;4.53;1.20;;;;;;;;;;5020870;28;20856;-65
2022/06/25 14:22:01;;;;;;;2.38;1.10;;;;;;;;;;5023478;28;20049;-65
2022/06/25 14:27:13;;;;;;;2.72;1.10;;;;;;;;;;5039387;28;20063;-65
2022/06/25 14:29:39;;;;;;;2.88;1.00;;;;;;;;;;5026526;28;20499;-65
2022/06/25 14:32:06;;;;;;;2.05;1.05;;;;;;;;;;5013065;28;20244;-65
2022/06/25 14:34:32;;;;;;;2.28;1.00;;;;;;;;;;5019909;28;20063;-65
2022/06/25 14:42:28;;;;;;;1.73;1.10;;;;;;;;;;5019509;28;20051;-65
2022/06/25 14:44:55;;;;;;;2.03;1.15;;;;;;;;;;5033574;28;20143;-66
2022/06/25 14:47:21;;;;;;;2.58;1.02;;;;;;;;;;5017749;28;20041;-65
2022/06/25 14:49:47;;;;;;;2.33;0.98;;;;;;;;;;5021556;28;20057;-66
2022/06/25 14:52:15;;;;;;;2.20;0.80;;;;;;;;;;5032000;28;20507;-65
2022/06/25 14:54:42;;;;;;;4.28;1.40;;;;;;;;;;5017203;28;20110;-65
2022/06/25 14:57:08;;;;;;;1.73;0.90;;;;;;;;;;5033709;28;20495;-65
2022/06/25 14:59:35;;;;;;;2.13;0.82;;;;;;;;;;5021833;28;20132;-65
2022/06/25 15:02:02;;;;;;;4.35;1.20;;;;;;;;;;5038813;28;20508;-65
2022/06/25 15:04:28;;;;;;;3.70;1.20;;;;;;;;;;5039655;28;20155;-65
2022/06/25 15:06:55;;;;;;;2.65;1.00;;;;;;;;;;5028915;28;20064;-66